Wahoo, NE

12:04 PM CDT on July 24, 2017 (GMT -0500)
Wahoo Municipal

Weather History for KAHQ - June, 2013

Change the Weather History Date:

Saturday, June 15, 2013

  Actual Average Record
Temperature  
Mean Temperature 74 °F -  
Max Temperature 82 °F 82 °F 99 °F (1987)
Min Temperature 65 °F 58 °F 45 °F (1969)
Cooling Degree Days 8    
Growing Degree Days 24 (Base 50)    
Moisture  
Dew Point 65 °F    
Average Humidity 75    
Maximum Humidity 93    
Minimum Humidity 51    
Precipitation  
Precipitation 0.30 in - - ()
Sea Level Pressure  
Sea Level Pressure 29.89 in    
Wind  
Wind Speed 9 mph (South)    
Max Wind Speed 23 mph    
Max Gust Speed 32 mph    
Visibility 10 miles    
Events      
Averages and records for this station are not official NWS values.
T = Trace of Precipitation, MM = Missing Value Source: NWS Daily Summary

Daily Weather History Graph

Daily Weather History Graph

Search for Another Location

Airport or City:

Trip Planner

Search our weather history database for the weather conditions in past years. The results will help you decide how hot, cold, wet, or windy it might be!

Date:

Astronomy

Jun. 15, 2013 Rise Set
Actual Time 5:52 AM CDT 9:01 PM CDT
Civil Twilight 5:19 AM CDT 9:34 PM CDT
Nautical Twilight 4:35 AM CDT 10:18 PM CDT
Astronomical Twilight 3:44 AM CDT 11:09 PM CDT
Moon 12:32 PM CDT (6/15) 12:33 AM CDT (6/15)
Length of Visible Light 16h 15m
Length of Day
15h 08m
Waxing Crescent, 40% of the Moon is Illuminated
Jun 15
Waxing Crescent
Jun 16
First Quarter
Jun 23
Full
Jun 29
Last Quarter
Jul 8
New

Hourly Weather History & Observations

Time (CDT) Temp. Heat Index Dew Point Humidity Pressure Visibility Wind Dir Wind Speed Gust Speed Precip Events Conditions
12:15 AM 70.2 °F - 64.0 °F 81% 29.85 in 10.0 mi SSE 9.2 mph - N/A   Clear
12:35 AM 70.2 °F - 63.9 °F 80% 29.82 in 10.0 mi SSE 11.5 mph - N/A   Clear
12:55 AM 70.2 °F - 63.5 °F 79% 29.83 in 10.0 mi SSE 11.5 mph - N/A   Clear
1:15 AM 70.0 °F - 63.5 °F 80% 29.83 in 10.0 mi South 9.2 mph - N/A   Clear
1:35 AM 71.4 °F - 64.0 °F 77% 29.82 in 10.0 mi South 13.8 mph - N/A   Clear
1:55 AM 74.3 °F - 65.3 °F 73% 29.83 in 10.0 mi South 10.4 mph - N/A   Clear
2:15 AM 70.9 °F - 63.7 °F 78% 29.86 in 10.0 mi ENE 8.1 mph - N/A   Clear
2:35 AM 70.0 °F - 64.4 °F 82% 29.87 in 10.0 mi North 11.5 mph - N/A   Clear
2:55 AM 70.3 °F - 64.2 °F 81% 29.87 in 10.0 mi North 8.1 mph - N/A   Clear
3:15 AM 68.2 °F - 63.5 °F 85% 29.88 in 10.0 mi North 10.4 mph - N/A   Clear
3:35 AM 67.1 °F - 63.5 °F 88% 29.86 in 10.0 mi NE 5.8 mph - N/A   Scattered Clouds
3:55 AM 66.6 °F - 63.3 °F 89% 29.86 in 10.0 mi NNE 10.4 mph - N/A   Clear
4:15 AM 66.6 °F - 63.3 °F 89% 29.86 in 10.0 mi NNE 6.9 mph - N/A   Clear
4:35 AM 66.2 °F - 63.1 °F 90% 29.84 in 10.0 mi ENE 9.2 mph - N/A   Clear
4:55 AM 66.2 °F - 63.1 °F 90% 29.84 in 10.0 mi East 6.9 mph - N/A   Clear
5:15 AM 66.2 °F - 63.5 °F 91% 29.85 in 10.0 mi Calm Calm - N/A   Clear
5:35 AM 65.7 °F - 63.1 °F 92% 29.86 in 10.0 mi North 3.5 mph - N/A   Clear
5:55 AM 65.5 °F - 63.0 °F 92% 29.86 in 10.0 mi North 3.5 mph - N/A   Clear
6:15 AM 65.3 °F - 63.1 °F 93% 29.85 in 10.0 mi NNE 3.5 mph - N/A   Clear
6:35 AM 65.7 °F - 63.7 °F 93% 29.86 in 7.0 mi Calm Calm - N/A   Clear
6:55 AM 66.2 °F - 64.0 °F 93% 29.85 in 10.0 mi Calm Calm - N/A   Clear
7:15 AM 67.1 °F - 64.6 °F 92% 29.86 in 10.0 mi Calm Calm - N/A   Scattered Clouds
7:35 AM 68.0 °F - 65.3 °F 91% 29.87 in 10.0 mi South 3.5 mph - N/A   Clear
7:55 AM 69.1 °F - 66.2 °F 91% 29.88 in 10.0 mi South 9.2 mph - N/A   Scattered Clouds
8:15 AM 71.6 °F - 67.1 °F 86% 29.88 in 10.0 mi SSW 10.4 mph - N/A   Scattered Clouds
8:35 AM 73.9 °F - 66.0 °F 76% 29.88 in 10.0 mi SSW 15.0 mph - N/A   Clear
8:55 AM 75.2 °F - 63.1 °F 66% 29.87 in 10.0 mi SW 12.7 mph - N/A   Scattered Clouds
9:15 AM 74.3 °F - 63.5 °F 69% 29.88 in 10.0 mi WSW 9.2 mph 16.1 mph N/A   Mostly Cloudy
9:35 AM 75.2 °F - 65.3 °F 71% 29.93 in 10.0 mi West 15.0 mph 19.6 mph N/A   Mostly Cloudy
9:55 AM 74.1 °F - 66.7 °F 78% 29.95 in 10.0 mi NW 23.0 mph 32.2 mph N/A   Mostly Cloudy
10:15 AM 73.0 °F - 67.5 °F 83% 29.92 in 10.0 mi NNW 18.4 mph 24.2 mph N/A   Scattered Clouds
10:35 AM 74.1 °F - 66.7 °F 78% 29.92 in 10.0 mi NNW 21.9 mph 26.5 mph N/A   Clear
10:55 AM 73.8 °F - 66.0 °F 77% 29.91 in 10.0 mi North 16.1 mph - N/A   Clear
11:15 AM 74.3 °F - 66.0 °F 75% 29.91 in 10.0 mi North 15.0 mph - N/A   Clear
11:35 AM 74.5 °F - 65.7 °F 74% 29.92 in 10.0 mi North 6.9 mph - N/A   Clear
11:55 AM 74.7 °F - 64.9 °F 72% 29.94 in 10.0 mi Calm Calm - N/A   Clear
12:15 PM 74.7 °F - 64.9 °F 72% 29.94 in 10.0 mi Calm Calm - N/A   Clear
12:35 PM 75.4 °F - 64.9 °F 70% 29.95 in 10.0 mi Calm Calm - N/A   Clear
12:55 PM 75.9 °F - 66.4 °F 72% 29.95 in 10.0 mi South 4.6 mph - N/A   Clear
1:15 PM 77.0 °F - 65.8 °F 68% 29.97 in 10.0 mi South 6.9 mph - N/A   Clear
1:35 PM 77.5 °F - 66.6 °F 69% 29.96 in 10.0 mi SSW 6.9 mph - N/A   Clear
1:55 PM 78.3 °F - 66.6 °F 67% 29.97 in 10.0 mi South 9.2 mph - N/A   Clear
2:15 PM 78.3 °F - 66.4 °F 67% 29.96 in 10.0 mi SSE 6.9 mph - N/A   Scattered Clouds
2:35 PM 79.9 °F - 67.6 °F 66% 29.95 in 10.0 mi South 6.9 mph - N/A   Clear
2:55 PM 82.2 °F 84.0 °F 64.9 °F 56% 29.93 in 10.0 mi SW 13.8 mph - N/A   Scattered Clouds
3:15 PM 82.0 °F 83.6 °F 64.6 °F 55% 29.92 in 10.0 mi South 6.9 mph 16.1 mph N/A   Clear
3:35 PM 81.9 °F 82.8 °F 61.9 °F 51% 29.90 in 10.0 mi SSE 13.8 mph 18.4 mph N/A   Scattered Clouds
3:55 PM 82.4 °F 83.4 °F 62.8 °F 51% 29.88 in 10.0 mi South 13.8 mph 18.4 mph N/A   Scattered Clouds
4:15 PM 82.2 °F 83.8 °F 64.8 °F 55% 29.88 in 10.0 mi SSW 10.4 mph - N/A   Mostly Cloudy
4:35 PM 81.9 °F 83.5 °F 64.6 °F 56% 29.87 in 10.0 mi SSW 10.4 mph 18.4 mph N/A   Scattered Clouds
4:55 PM 82.2 °F 84.2 °F 65.5 °F 57% 29.87 in 10.0 mi SW 11.5 mph - N/A   Scattered Clouds
5:15 PM 82.4 °F 84.2 °F 65.1 °F 56% 29.87 in 10.0 mi SW 10.4 mph - N/A   Scattered Clouds
5:35 PM 82.2 °F 84.0 °F 64.9 °F 56% 29.88 in 10.0 mi SW 10.4 mph - N/A   Scattered Clouds
5:55 PM 82.2 °F 83.8 °F 64.8 °F 55% 29.88 in 10.0 mi SSW 6.9 mph - N/A   Mostly Cloudy
6:15 PM 81.5 °F 83.3 °F 65.1 °F 57% 29.88 in 10.0 mi WSW 5.8 mph - N/A   Mostly Cloudy
6:35 PM 82.0 °F 83.6 °F 64.4 °F 55% 29.87 in 10.0 mi SSW 5.8 mph - N/A   Mostly Cloudy
6:55 PM 82.4 °F 84.4 °F 66.0 °F 57% 29.87 in 10.0 mi SSW 6.9 mph - N/A   Scattered Clouds
7:15 PM 82.0 °F 84.1 °F 65.8 °F 58% 29.88 in 10.0 mi South 9.2 mph - N/A   Scattered Clouds
7:35 PM 80.6 °F 82.8 °F 66.4 °F 62% 29.88 in 10.0 mi South 6.9 mph - N/A   Mostly Cloudy
7:55 PM 79.9 °F - 66.7 °F 64% 29.89 in 10.0 mi South 8.1 mph - N/A   Mostly Cloudy
8:15 PM 78.3 °F - 67.5 °F 69% 29.89 in 10.0 mi South 5.8 mph - N/A   Scattered Clouds
8:35 PM 77.4 °F - 67.5 °F 71% 29.90 in 10.0 mi South 6.9 mph - N/A   Clear
8:55 PM 74.5 °F - 66.7 °F 77% 29.91 in 10.0 mi SSE 10.4 mph 16.1 mph N/A   Clear
9:15 PM 73.4 °F - 67.1 °F 81% 29.91 in 10.0 mi SSE 9.2 mph - N/A   Clear
9:35 PM 72.5 °F - 66.6 °F 82% 29.92 in 10.0 mi South 6.9 mph - N/A   Clear
9:55 PM 71.6 °F - 66.6 °F 84% 29.93 in 10.0 mi South 5.8 mph - N/A   Clear
10:15 PM 70.3 °F - 66.2 °F 87% 29.94 in 10.0 mi SSE 4.6 mph - N/A   Clear
10:35 PM 69.8 °F - 66.2 °F 88% 29.95 in 10.0 mi SSE 5.8 mph - N/A   Clear
10:55 PM 69.8 °F - 65.7 °F 87% 29.94 in 10.0 mi SE 5.8 mph - N/A   Clear
11:15 PM 68.9 °F - 65.5 °F 89% 29.95 in 10.0 mi SE 5.8 mph - N/A   Clear
11:35 PM 68.5 °F - 65.5 °F 90% 29.96 in 10.0 mi Calm Calm - N/A   Clear
11:55 PM 68.0 °F - 64.9 °F 90% 29.96 in 10.0 mi Calm Calm - N/A   Clear